Time;durP1;ratioP1;P1;durP2;ratioP2;P2;SDS_P1;SDS_P2;PMS_P1;PMS_P2;Temp;Humidity;BMP_temperature;BMP_pressure;BME280_temperature;BME280_humidity;BME280_pressure;Samples;Min_cycle;Max_cycle;Signal;HPM_P1;HPM_P2
2021/11/07 00:06:46;;;;;;;14.82;12.48;;;9.60;99.90;;;;;;5068256;28;20508;-85
2021/11/07 00:11:44;;;;;;;15.68;13.98;;;9.60;99.90;;;;;;5059521;28;20109;-86
2021/11/07 00:14:11;;;;;;;15.93;14.43;;;9.50;99.90;;;;;;5050009;28;20032;-86
2021/11/07 00:16:40;;;;;;;13.23;11.93;;;9.50;99.90;;;;;;5050898;28;20083;-89
2021/11/07 00:19:16;;;;;;;16.67;14.90;;;9.60;99.90;;;;;;5083164;28;20055;-87
2021/11/07 00:24:59;;;;;;;16.13;14.52;;;9.50;99.90;;;;;;5088419;28;20051;-87
2021/11/07 00:27:31;;;;;;;14.95;13.45;;;9.50;99.90;;;;;;5070092;28;20032;-87
2021/11/07 00:37:39;;;;;;;16.15;14.50;;;9.50;99.90;;;;;;5089234;28;20058;-89
2021/11/07 00:54:03;;;;;;;17.17;15.43;;;9.60;99.90;;;;;;5073186;28;20138;-91
2021/11/07 01:01:38;;;;;;;17.15;15.38;;;9.60;99.90;;;;;;5089869;28;20197;-87
2021/11/07 01:04:06;;;;;;;18.40;16.45;;;9.60;99.90;;;;;;5072679;28;20039;-91
2021/11/07 01:06:33;;;;;;;18.45;16.65;;;9.70;99.90;;;;;;5062872;28;20044;-88
2021/11/07 01:09:00;;;;;;;17.90;16.00;;;9.70;99.90;;;;;;5076961;28;20040;-89
2021/11/07 01:11:26;;;;;;;19.60;17.15;;;9.70;99.90;;;;;;5074592;28;20036;-88
2021/11/07 01:13:52;;;;;;;18.98;16.95;;;9.70;99.90;;;;;;5075038;28;20027;-90
2021/11/07 01:16:19;;;;;;;19.70;17.67;;;9.70;99.90;;;;;;5075978;28;20040;-89
2021/11/07 01:18:46;;;;;;;22.05;19.55;;;9.70;99.90;;;;;;5074653;28;20138;-90
2021/11/07 01:21:14;;;;;;;22.35;20.15;;;9.80;99.90;;;;;;5073627;28;20476;-89
2021/11/07 01:23:45;;;;;;;21.48;19.38;;;9.70;99.90;;;;;;5073702;28;20154;-89
2021/11/07 01:26:22;;;;;;;24.10;21.58;;;9.70;99.90;;;;;;5074475;28;20036;-90
2021/11/07 01:28:57;;;;;;;24.60;22.15;;;9.70;99.90;;;;;;5075101;28;20051;-89
2021/11/07 01:31:32;;;;;;;24.58;21.85;;;9.70;99.90;;;;;;5092826;28;20474;-89
2021/11/07 01:33:59;;;;;;;24.25;21.75;;;9.80;99.90;;;;;;5075716;28;20416;-90
2021/11/07 01:36:37;;;;;;;24.50;21.98;;;9.80;99.90;;;;;;5093359;28;20043;-87
2021/11/07 01:39:16;;;;;;;24.00;21.42;;;9.80;99.90;;;;;;5075749;28;20047;-90
2021/11/07 01:44:15;;;;;;;26.67;23.42;;;9.80;99.90;;;;;;5095114;28;20032;-87
2021/11/07 01:46:46;;;;;;;27.05;24.15;;;9.90;99.90;;;;;;5077768;28;20043;-90
2021/11/07 01:49:20;;;;;;;26.50;23.33;;;9.90;99.90;;;;;;5096746;28;20535;-89
2021/11/07 01:51:48;;;;;;;26.98;24.17;;;9.90;99.90;;;;;;5058972;28;20492;-90
2021/11/07 01:54:35;;;;;;;30.50;26.77;;;9.90;99.90;;;;;;5065942;28;20506;-92
2021/11/07 01:57:08;;;;;;;32.97;28.52;;;9.90;99.90;;;;;;5096159;28;20103;-91
2021/11/07 01:59:45;;;;;;;32.42;27.58;;;9.90;99.90;;;;;;5077460;28;20035;-91
2021/11/07 02:02:18;;;;;;;29.80;26.60;;;10.00;99.90;;;;;;5077913;28;20082;-91
2021/11/07 02:04:48;;;;;;;33.67;28.02;;;10.00;99.90;;;;;;5114993;28;20361;-92
2021/11/07 02:07:18;;;;;;;30.90;26.88;;;10.00;99.90;;;;;;5082668;28;20069;-93
2021/11/07 02:09:44;;;;;;;32.53;28.15;;;10.00;99.90;;;;;;5069749;28;20043;-93
2021/11/07 02:12:14;;;;;;;34.95;29.95;;;10.00;99.90;;;;;;5059261;28;20113;-93
2021/11/07 02:14:43;;;;;;;31.25;27.92;;;10.00;99.90;;;;;;5057585;28;20499;-94
2021/11/07 02:17:11;;;;;;;33.78;29.38;;;10.00;99.90;;;;;;5056533;28;20135;-95
2021/11/07 02:19:51;;;;;;;33.30;29.45;;;10.00;99.90;;;;;;5039569;28;20052;-94
2021/11/07 02:22:23;;;;;;;33.55;27.30;;;10.10;99.90;;;;;;5072544;28;20037;-94
2021/11/07 02:24:49;;;;;;;37.70;30.25;;;10.10;99.90;;;;;;5057204;28;20040;-92
2021/11/07 02:27:16;;;;;;;34.45;29.50;;;10.10;99.90;;;;;;5057822;28;20029;-93
2021/11/07 02:29:51;;;;;;;34.70;29.70;;;10.10;99.90;;;;;;5056608;28;20548;-95
2021/11/07 02:32:18;;;;;;;39.17;31.33;;;10.10;99.90;;;;;;5076342;28;20499;-96
2021/11/07 02:34:44;;;;;;;36.22;30.48;;;10.10;99.90;;;;;;5059253;28;20036;-95
2021/11/07 02:37:14;;;;;;;35.17;28.58;;;10.10;99.90;;;;;;5058836;28;20068;-94
2021/11/07 02:39:40;;;;;;;37.88;30.10;;;10.20;99.90;;;;;;5077841;28;20029;-95
2021/11/07 02:42:08;;;;;;;33.55;28.40;;;10.20;99.90;;;;;;5059624;28;20045;-94
2021/11/07 02:44:44;;;;;;;35.65;30.90;;;10.20;99.90;;;;;;5037421;28;20055;-95
2021/11/07 02:47:14;;;;;;;36.80;31.95;;;10.20;99.90;;;;;;5055934;28;20028;-95
2021/11/07 02:49:41;;;;;;;40.33;33.85;;;10.20;99.90;;;;;;5057184;28;20039;-94
2021/11/07 02:52:11;;;;;;;39.13;31.73;;;10.20;99.90;;;;;;5057049;28;20029;-94
2021/11/07 02:54:38;;;;;;;38.13;31.75;;;10.20;99.90;;;;;;5057346;28;20103;-95
2021/11/07 02:57:06;;;;;;;42.15;34.17;;;10.20;99.90;;;;;;5056951;28;20036;-93
2021/11/07 02:59:38;;;;;;;35.88;31.65;;;10.20;99.90;;;;;;5056826;28;20063;-94
2021/11/07 03:02:08;;;;;;;36.08;29.90;;;10.20;99.90;;;;;;5036530;28;20025;-92
2021/11/07 03:04:35;;;;;;;42.10;33.75;;;10.30;99.90;;;;;;5071113;28;20099;-94
2021/11/07 03:07:02;;;;;;;44.70;35.83;;;10.30;99.90;;;;;;5056104;28;20121;-92
2021/11/07 03:09:32;;;;;;;47.50;36.22;;;10.30;99.90;;;;;;5056582;28;20214;-92
2021/11/07 03:12:01;;;;;;;41.40;34.50;;;10.30;99.90;;;;;;5055787;28;20498;-92
2021/11/07 03:14:32;;;;;;;43.08;33.35;;;10.30;99.90;;;;;;5055735;28;20056;-92
2021/11/07 03:17:00;;;;;;;45.05;33.10;;;10.30;99.90;;;;;;5053590;28;20111;-92
2021/11/07 03:19:27;;;;;;;45.70;34.35;;;10.40;99.90;;;;;;5056057;28;20068;-91
2021/11/07 03:21:57;;;;;;;37.85;31.63;;;10.40;99.90;;;;;;5056684;28;20094;-92
2021/11/07 03:24:25;;;;;;;35.97;28.58;;;10.40;99.90;;;;;;5056281;28;20037;-92
2021/11/07 03:26:59;;;;;;;36.60;30.30;;;10.40;99.90;;;;;;5074344;28;20033;-91
2021/11/07 03:29:33;;;;;;;40.17;32.83;;;10.40;99.90;;;;;;5055661;28;20040;-92
2021/11/07 03:32:08;;;;;;;41.78;31.85;;;10.50;99.90;;;;;;5056583;28;20032;-91
2021/11/07 03:34:44;;;;;;;38.65;30.88;;;10.50;99.90;;;;;;5056279;28;20123;-92
2021/11/07 03:37:12;;;;;;;39.38;30.35;;;10.50;99.90;;;;;;5056512;28;20048;-91
2021/11/07 03:39:39;;;;;;;40.60;31.75;;;10.50;99.90;;;;;;5056364;28;20025;-91
2021/11/07 03:42:10;;;;;;;43.03;31.92;;;10.50;99.90;;;;;;5056638;28;20036;-91
2021/11/07 03:44:38;;;;;;;40.22;30.52;;;10.50;99.90;;;;;;5056847;28;20028;-91
2021/11/07 03:47:05;;;;;;;40.90;29.33;;;10.60;99.90;;;;;;5040302;28;20059;-92
2021/11/07 03:49:31;;;;;;;40.63;30.63;;;10.60;99.90;;;;;;5056547;28;20033;-92
2021/11/07 03:51:57;;;;;;;40.13;28.85;;;10.60;99.90;;;;;;5056175;28;20492;-91
2021/11/07 03:54:24;;;;;;;38.33;29.52;;;10.60;99.90;;;;;;5055381;28;20032;-91
2021/11/07 03:56:50;;;;;;;39.97;28.45;;;10.70;99.90;;;;;;5056308;28;20056;-91
2021/11/07 03:59:16;;;;;;;41.60;30.35;;;10.70;99.90;;;;;;5056031;28;20063;-91
2021/11/07 04:01:42;;;;;;;44.42;29.50;;;10.70;99.90;;;;;;5055249;28;20396;-90
2021/11/07 04:04:09;;;;;;;46.80;28.88;;;10.70;99.90;;;;;;5073683;28;20384;-92
2021/11/07 04:06:36;;;;;;;32.08;21.23;;;10.70;99.90;;;;;;5039399;28;20041;-93
2021/11/07 04:09:04;;;;;;;26.95;17.33;;;10.70;99.90;;;;;;5056602;28;20047;-92
2021/11/07 04:11:30;;;;;;;25.15;12.73;;;10.70;99.90;;;;;;5055998;28;20040;-93
2021/11/07 04:13:57;;;;;;;17.27;8.63;;;10.60;99.90;;;;;;5074504;28;20033;-93
2021/11/07 04:16:22;;;;;;;20.92;9.63;;;10.50;99.90;;;;;;5055736;28;20047;-94
2021/11/07 04:18:48;;;;;;;21.77;10.40;;;10.40;99.90;;;;;;5068556;28;20052;-93
2021/11/07 04:21:15;;;;;;;26.17;11.02;;;10.30;99.90;;;;;;5076824;28;20085;-92
2021/11/07 04:23:41;;;;;;;21.65;8.27;;;10.30;99.90;;;;;;5094841;28;20016;-92
2021/11/07 04:26:07;;;;;;;17.90;7.75;;;10.30;99.90;;;;;;5069200;28;20037;-94
2021/11/07 04:28:33;;;;;;;21.45;7.05;;;10.20;99.90;;;;;;5066160;28;20036;-92
2021/11/07 04:30:59;;;;;;;23.70;6.72;;;10.20;99.90;;;;;;5062258;28;20127;-92
2021/11/07 04:33:25;;;;;;;14.65;5.82;;;10.20;99.90;;;;;;5072680;28;20036;-92
2021/11/07 04:35:51;;;;;;;18.92;6.63;;;10.20;99.90;;;;;;5076137;28;20119;-92
2021/11/07 04:38:18;;;;;;;16.27;5.40;;;10.10;99.90;;;;;;5075650;28;20024;-91
2021/11/07 04:40:45;;;;;;;18.15;6.00;;;10.10;99.90;;;;;;5096040;28;20047;-91
2021/11/07 04:43:13;;;;;;;18.50;5.50;;;10.10;99.90;;;;;;5097975;28;20032;-92
2021/11/07 04:45:40;;;;;;;15.23;5.60;;;10.20;99.90;;;;;;5097552;28;20131;-91
2021/11/07 04:48:07;;;;;;;19.85;6.47;;;10.20;99.90;;;;;;5097403;28;20032;-91
2021/11/07 04:50:37;;;;;;;16.08;6.57;;;10.20;99.90;;;;;;5079267;28;20079;-92
2021/11/07 04:53:08;;;;;;;20.60;8.20;;;10.20;99.90;;;;;;5065113;28;20036;-91
2021/11/07 04:55:36;;;;;;;22.15;9.52;;;10.20;99.90;;;;;;5077487;28;20443;-91
2021/11/07 04:58:03;;;;;;;19.35;7.75;;;10.20;99.90;;;;;;5079425;28;20035;-92
2021/11/07 05:00:31;;;;;;;20.50;8.52;;;10.20;99.90;;;;;;5062599;28;20032;-92
2021/11/07 05:02:57;;;;;;;22.17;9.90;;;10.20;99.90;;;;;;5079378;28;20062;-90
2021/11/07 05:05:24;;;;;;;23.30;9.25;;;10.20;99.90;;;;;;5079220;28;20130;-91
2021/11/07 05:07:51;;;;;;;19.00;8.27;;;10.20;99.90;;;;;;5075163;28;20036;-91
2021/11/07 05:10:17;;;;;;;18.85;7.93;;;10.20;99.90;;;;;;5067273;28;20050;-91
2021/11/07 05:12:43;;;;;;;16.95;8.13;;;10.20;99.90;;;;;;5066775;28;20460;-91
2021/11/07 05:15:10;;;;;;;21.17;8.23;;;10.20;99.90;;;;;;5074050;28;20039;-91
2021/11/07 05:17:36;;;;;;;20.60;8.18;;;10.20;99.90;;;;;;5096503;28;20127;-91
2021/11/07 05:20:02;;;;;;;19.60;7.28;;;10.20;99.90;;;;;;5073261;28;20071;-91
2021/11/07 05:22:28;;;;;;;20.02;7.13;;;10.20;99.90;;;;;;5067967;28;20040;-92
2021/11/07 05:24:53;;;;;;;16.58;6.63;;;10.20;99.90;;;;;;5066106;28;20136;-91
2021/11/07 05:27:20;;;;;;;16.00;6.40;;;10.10;99.90;;;;;;5093599;28;20028;-92
2021/11/07 05:29:45;;;;;;;15.05;5.93;;;10.10;99.90;;;;;;5078618;28;20051;-92
2021/11/07 05:32:11;;;;;;;17.35;6.13;;;10.10;99.90;;;;;;5071604;28;20033;-91
2021/11/07 05:34:40;;;;;;;17.50;6.07;;;10.10;99.90;;;;;;5087635;28;20032;-91
2021/11/07 05:37:06;;;;;;;20.75;5.53;;;10.10;99.90;;;;;;5047994;28;20032;-92
2021/11/07 05:39:32;;;;;;;16.75;4.85;;;10.10;99.90;;;;;;5059073;28;20127;-92
2021/11/07 05:41:58;;;;;;;13.63;4.57;;;10.10;99.90;;;;;;5081782;28;20177;-92
2021/11/07 05:44:24;;;;;;;13.05;4.65;;;10.00;99.90;;;;;;5069702;28;20036;-91
2021/11/07 05:46:49;;;;;;;18.35;4.88;;;10.00;99.90;;;;;;5070990;28;20024;-91
2021/11/07 05:49:17;;;;;;;16.00;4.32;;;10.00;99.90;;;;;;5061753;28;20033;-91
2021/11/07 05:51:43;;;;;;;16.73;4.97;;;10.00;99.90;;;;;;5094885;28;20036;-92
2021/11/07 05:54:09;;;;;;;21.95;4.60;;;9.90;99.90;;;;;;5078278;28;20043;-92
2021/11/07 05:56:35;;;;;;;14.40;4.45;;;9.90;99.90;;;;;;5096457;28;20035;-91
2021/11/07 05:59:00;;;;;;;18.50;5.38;;;9.90;99.90;;;;;;5064368;28;20469;-91
2021/11/07 06:01:26;;;;;;;17.38;3.85;;;9.80;99.90;;;;;;5077172;28;20024;-91
2021/11/07 06:03:52;;;;;;;15.60;4.13;;;9.80;99.90;;;;;;5062052;28;20098;-92
2021/11/07 06:06:19;;;;;;;13.82;3.72;;;9.80;99.90;;;;;;5078108;28;20170;-92
2021/11/07 06:08:44;;;;;;;16.15;3.47;;;9.80;99.90;;;;;;5078066;28;20513;-92
2021/11/07 06:11:10;;;;;;;12.60;3.20;;;9.70;99.90;;;;;;5062543;28;20096;-91
2021/11/07 06:13:36;;;;;;;17.38;4.25;;;9.70;99.90;;;;;;5076487;28;20388;-91
2021/11/07 06:16:02;;;;;;;15.57;3.58;;;9.70;99.90;;;;;;5077944;28;20028;-93
2021/11/07 06:18:29;;;;;;;17.70;3.45;;;9.60;99.90;;;;;;5077874;28;20051;-90
2021/11/07 06:20:56;;;;;;;17.40;3.65;;;9.60;99.90;;;;;;5077985;28;20020;-91
2021/11/07 06:23:23;;;;;;;13.70;2.88;;;9.50;99.90;;;;;;5077877;28;20040;-92
2021/11/07 06:25:49;;;;;;;15.68;3.00;;;9.40;99.90;;;;;;5095793;28;20070;-92
2021/11/07 06:28:16;;;;;;;12.18;2.72;;;9.30;99.90;;;;;;5079042;28;20034;-92
2021/11/07 06:30:43;;;;;;;17.92;4.07;;;9.30;99.90;;;;;;5097104;28;20036;-92
2021/11/07 06:33:10;;;;;;;11.25;2.83;;;9.30;99.90;;;;;;5096772;28;20036;-92
2021/11/07 06:35:35;;;;;;;14.02;3.28;;;9.30;99.90;;;;;;5095237;28;20119;-91
2021/11/07 06:38:01;;;;;;;16.83;3.60;;;9.20;99.90;;;;;;5072732;28;20033;-92
2021/11/07 06:40:27;;;;;;;14.68;2.72;;;9.20;99.90;;;;;;5067809;28;20036;-91
2021/11/07 06:42:53;;;;;;;15.02;3.20;;;9.10;99.90;;;;;;5078031;28;20036;-92
2021/11/07 06:45:19;;;;;;;17.27;3.00;;;9.10;99.90;;;;;;5060562;28;20412;-92
2021/11/07 06:47:45;;;;;;;11.52;2.55;;;9.00;99.90;;;;;;5060784;28;20450;-92
2021/11/07 06:50:12;;;;;;;13.10;2.65;;;8.90;99.90;;;;;;5095041;28;20099;-92
2021/11/07 06:52:40;;;;;;;10.75;2.17;;;8.90;99.90;;;;;;5066391;28;20044;-91
2021/11/07 06:55:07;;;;;;;13.70;2.72;;;8.80;99.90;;;;;;5071494;28;20117;-92
2021/11/07 06:57:33;;;;;;;12.10;2.40;;;8.70;99.90;;;;;;5076197;28;20040;-91
2021/11/07 06:59:59;;;;;;;13.57;2.40;;;8.70;99.90;;;;;;5094770;28;20039;-91
2021/11/07 07:02:25;;;;;;;10.85;2.63;;;8.70;99.90;;;;;;5077065;28;20039;-91
2021/11/07 07:04:51;;;;;;;11.52;2.85;;;8.60;99.90;;;;;;5064016;28;20044;-91
2021/11/07 07:07:18;;;;;;;16.98;2.95;;;8.70;99.90;;;;;;5073017;28;20035;-92
2021/11/07 07:09:48;;;;;;;19.80;4.43;;;8.70;99.90;;;;;;5076411;28;20399;-92
2021/11/07 07:13:02;;;;;;;12.40;2.67;;;8.70;99.90;;;;;;5069738;28;20095;-91
2021/11/07 07:15:06;;;;;;;14.52;2.97;;;8.70;99.90;;;;;;5077621;28;20498;-92
2021/11/07 07:28:15;;;;;;;17.65;4.05;;;8.60;99.90;;;;;;5074600;28;20079;-92
2021/11/07 07:31:01;;;;;;;13.55;3.38;;;8.60;99.90;;;;;;5056734;28;20036;-91
2021/11/07 07:33:37;;;;;;;18.33;3.28;;;8.60;99.90;;;;;;5042388;28;20144;-92
2021/11/07 07:36:02;;;;;;;16.35;3.40;;;8.60;99.90;;;;;;5056343;28;20036;-92
2021/11/07 07:38:28;;;;;;;18.42;3.25;;;8.70;99.90;;;;;;5056842;28;20094;-91
2021/11/07 07:40:54;;;;;;;18.02;4.00;;;8.70;99.90;;;;;;5075639;28;20388;-91
2021/11/07 07:43:20;;;;;;;18.80;4.13;;;8.70;99.90;;;;;;5056421;28;20039;-92
2021/11/07 07:45:46;;;;;;;15.93;3.63;;;8.70;99.90;;;;;;5054112;28;20051;-91
2021/11/07 07:48:16;;;;;;;16.10;3.75;;;8.70;99.90;;;;;;5054314;28;20036;-91
2021/11/07 07:50:43;;;;;;;18.27;3.28;;;8.70;99.90;;;;;;5054181;28;20040;-91
2021/11/07 07:53:10;;;;;;;23.65;3.85;;;8.70;99.90;;;;;;5072462;28;20060;-91
2021/11/07 07:55:36;;;;;;;16.88;3.45;;;8.80;99.90;;;;;;5054460;28;20123;-92
2021/11/07 07:58:02;;;;;;;13.27;3.03;;;8.80;99.90;;;;;;5054525;28;20124;-91
2021/11/07 08:00:28;;;;;;;15.65;3.10;;;8.90;99.90;;;;;;5055563;28;20133;-91
2021/11/07 08:02:57;;;;;;;18.83;3.85;;;8.90;99.90;;;;;;5053259;28;20545;-91
2021/11/07 08:05:24;;;;;;;21.73;4.30;;;9.00;99.90;;;;;;5069803;28;20475;-91
2021/11/07 08:07:50;;;;;;;17.60;4.28;;;9.00;99.90;;;;;;5043913;28;20033;-92
2021/11/07 08:10:18;;;;;;;21.30;3.42;;;9.10;99.90;;;;;;5054414;28;20338;-91
2021/11/07 08:12:43;;;;;;;17.30;3.20;;;9.10;99.90;;;;;;5054528;28;20040;-91
2021/11/07 08:15:13;;;;;;;18.23;3.50;;;9.20;99.90;;;;;;5070299;28;20124;-91
2021/11/07 08:17:39;;;;;;;20.17;3.88;;;9.30;99.90;;;;;;5058285;28;20039;-93
2021/11/07 08:20:09;;;;;;;17.88;3.05;;;9.50;99.90;;;;;;5094089;28;20031;-92
2021/11/07 08:22:42;;;;;;;18.67;3.45;;;9.60;99.90;;;;;;5061599;28;20032;-92
2021/11/07 08:25:10;;;;;;;18.02;3.67;;;9.80;99.90;;;;;;5077455;28;20036;-90
2021/11/07 08:27:41;;;;;;;17.67;3.30;;;9.90;99.90;;;;;;5074312;28;20032;-90
2021/11/07 08:30:32;;;;;;;18.05;3.80;;;10.00;99.90;;;;;;5076672;28;20405;-91
2021/11/07 08:32:59;;;;;;;20.13;3.00;;;9.90;99.90;;;;;;5071826;28;20182;-92
2021/11/07 08:35:25;;;;;;;15.70;3.47;;;10.00;99.90;;;;;;5068871;28;20095;-91
2021/11/07 08:38:04;;;;;;;15.30;2.92;;;10.00;99.90;;;;;;5095856;28;20051;-91
2021/11/07 08:40:36;;;;;;;14.05;2.50;;;10.00;99.90;;;;;;5072591;28;20066;-92
2021/11/07 08:43:08;;;;;;;11.38;2.50;;;10.00;99.90;;;;;;5074449;28;20036;-91
2021/11/07 09:07:36;;;;;;;13.10;2.90;;;14.60;99.90;;;;;;5096512;28;20063;-91
2021/11/07 09:10:11;;;;;;;12.60;3.50;;;14.30;99.90;;;;;;5077249;28;20062;-91
2021/11/07 09:12:38;;;;;;;15.85;3.92;;;14.70;99.90;;;;;;5077783;28;20032;-91
2021/11/07 09:15:05;;;;;;;12.63;3.63;;;15.10;99.90;;;;;;5079157;28;20044;-92
2021/11/07 09:17:32;;;;;;;10.57;3.25;;;15.30;99.90;;;;;;5064878;28;20036;-92
2021/11/07 09:19:58;;;;;;;14.93;3.38;;;15.50;99.90;;;;;;5077426;28;20032;-92
2021/11/07 09:22:34;;;;;;;14.25;4.40;;;15.80;99.90;;;;;;5077147;28;20042;-93
2021/11/07 09:25:03;;;;;;;15.00;3.30;;;16.00;99.90;;;;;;5078666;28;20411;-92
2021/11/07 09:27:36;;;;;;;16.08;3.67;;;16.30;99.90;;;;;;5075515;28;20411;-91
2021/11/07 09:30:10;;;;;;;12.35;2.58;;;16.50;99.90;;;;;;5095146;28;20032;-92
2021/11/07 09:32:55;;;;;;;16.27;3.88;;;16.60;99.90;;;;;;5066176;28;20094;-92
2021/11/07 09:40:36;;;;;;;12.55;2.70;;;16.70;99.90;;;;;;5094879;28;19904;-90
2021/11/07 09:46:01;;;;;;;12.57;3.08;;;16.60;99.90;;;;;;5094148;28;20166;-90
2021/11/07 09:48:36;;;;;;;16.30;3.92;;;16.70;99.90;;;;;;5073860;28;20503;-91
2021/11/07 09:51:16;;;;;;;14.98;3.75;;;16.80;99.90;;;;;;5069930;28;20028;-91
2021/11/07 09:53:56;;;;;;;14.13;3.15;;;17.00;99.90;;;;;;5092683;28;20389;-91
2021/11/07 09:56:35;;;;;;;14.05;3.10;;;17.20;99.90;;;;;;5076770;28;20051;-90
2021/11/07 09:59:10;;;;;;;13.55;3.85;;;16.60;99.90;;;;;;5076432;28;20099;-90
2021/11/07 10:01:38;;;;;;;13.63;2.90;;;15.90;99.90;;;;;;5059734;28;20400;-91
2021/11/07 10:04:10;;;;;;;13.27;2.90;;;15.40;99.90;;;;;;5070193;28;20032;-91
2021/11/07 10:06:49;;;;;;;12.18;2.88;;;15.10;99.90;;;;;;5066318;28;20098;-90
2021/11/07 10:09:42;;;;;;;13.20;2.60;;;15.50;99.90;;;;;;5060324;28;20114;-90
2021/11/07 10:12:30;;;;;;;16.00;3.13;;;16.20;99.90;;;;;;5081444;28;20115;-91
2021/11/07 10:15:03;;;;;;;13.05;2.80;;;16.60;99.90;;;;;;5076062;28;20028;-89
2021/11/07 10:17:59;;;;;;;13.50;2.63;;;17.10;99.90;;;;;;5077194;28;20546;-91
2021/11/07 10:20:41;;;;;;;12.77;2.70;;;17.50;99.90;;;;;;5065488;28;20043;-90
2021/11/07 10:23:27;;;;;;;12.87;3.33;;;17.50;99.90;;;;;;5051039;28;20079;-89
2021/11/07 10:28:38;;;;;;;11.18;2.72;;;17.80;99.90;;;;;;5085650;28;20051;-89
2021/11/07 10:31:11;;;;;;;9.27;2.83;;;17.80;99.90;;;;;;5081125;28;20071;-91
2021/11/07 10:42:12;;;;;;;16.52;3.05;;;17.80;99.90;;;;;;5062241;28;20032;-89
2021/11/07 10:53:14;;;;;;;10.73;2.58;;;18.10;99.90;;;;;;5061270;28;20032;-90
2021/11/07 10:55:46;;;;;;;15.55;2.88;;;18.50;99.90;;;;;;5049813;28;20087;-89
2021/11/07 10:58:13;;;;;;;9.77;2.55;;;18.60;99.90;;;;;;5057799;28;20040;-89
2021/11/07 11:00:46;;;;;;;12.60;3.03;;;19.00;99.90;;;;;;5049077;28;20123;-89
2021/11/07 11:03:16;;;;;;;12.55;3.60;;;19.40;99.90;;;;;;5041749;28;20025;-88
2021/11/07 11:05:57;;;;;;;10.07;2.97;;;19.30;99.90;;;;;;5070796;28;20410;-89
2021/11/07 11:08:29;;;;;;;11.10;3.28;;;19.40;99.90;;;;;;5082104;28;20047;-89
2021/11/07 11:11:25;;;;;;;11.18;3.05;;;19.10;99.90;;;;;;5061247;28;20062;-88
2021/11/07 11:16:44;;;;;;;12.48;2.78;;;19.10;99.90;;;;;;5084359;28;20040;-88
2021/11/07 11:19:27;;;;;;;13.32;2.80;;;18.80;99.90;;;;;;5071986;28;20048;-87
2021/11/07 11:30:21;;;;;;;9.27;2.80;;;19.00;99.90;;;;;;5072135;28;20036;-87
2021/11/07 11:32:58;;;;;;;11.32;2.88;;;18.90;99.90;;;;;;5053918;28;20067;-87
2021/11/07 11:39:08;;;;;;;10.20;2.53;;;19.20;99.90;;;;;;5129957;27;20383;-88
2021/11/07 11:41:39;;;;;;;10.15;2.67;;;17.80;99.90;;;;;;5129616;27;20035;-87
2021/11/07 11:44:06;;;;;;;9.85;2.30;;;16.90;99.90;;;;;;5145991;27;20360;-87
2021/11/07 11:47:05;;;;;;;11.57;2.75;;;16.20;99.90;;;;;;5129969;28;20027;-87
2021/11/07 11:55:20;;;;;;;10.15;2.50;;;14.50;99.90;;;;;;5129819;27;20351;-87
2021/11/07 11:58:14;;;;;;;10.57;2.70;;;14.00;99.90;;;;;;5128328;28;20081;-87
2021/11/07 12:01:08;;;;;;;10.70;2.30;;;13.60;99.90;;;;;;5128188;28;20032;-87
2021/11/07 12:09:55;;;;;;;7.43;1.75;;;11.90;99.90;;;;;;5129684;27;20023;-88
2021/11/07 12:12:37;;;;;;;9.23;1.70;;;11.30;99.90;;;;;;5129102;28;20463;-92
2021/11/07 12:18:04;;;;;;;10.32;1.88;;;10.70;99.90;;;;;;5113555;28;20118;-92
2021/11/07 12:20:39;;;;;;;13.63;2.63;;;10.60;99.90;;;;;;5128699;28;20031;-91
2021/11/07 12:23:33;;;;;;;14.40;2.55;;;10.60;99.90;;;;;;5129657;28;20119;-91
2021/11/07 12:26:25;;;;;;;10.93;2.50;;;10.50;99.90;;;;;;5129004;28;20088;-91
2021/11/07 12:28:54;;;;;;;9.30;2.03;;;10.40;99.90;;;;;;5128787;28;20493;-90
2021/11/07 12:31:20;;;;;;;8.98;2.30;;;10.50;99.90;;;;;;5112463;28;20636;-93
2021/11/07 12:34:18;;;;;;;9.10;2.92;;;10.70;99.90;;;;;;5125011;28;20103;-93
2021/11/07 12:43:16;;;;;;;13.90;2.35;;;11.30;99.90;;;;;;5132597;28;20092;-91
2021/11/07 12:45:47;;;;;;;11.38;2.50;;;11.70;99.90;;;;;;5091622;28;20024;-92
2021/11/07 12:48:35;;;;;;;13.45;2.95;;;12.80;99.90;;;;;;5122619;28;20032;-91
2021/11/07 12:51:02;;;;;;;13.07;2.72;;;13.50;99.90;;;;;;5115192;28;20076;-91
2021/11/07 12:53:51;;;;;;;11.25;2.55;;;13.90;99.90;;;;;;5081306;28;20119;-92
2021/11/07 12:56:43;;;;;;;11.73;2.67;;;13.80;99.90;;;;;;5097183;27;20041;-92
2021/11/07 12:59:12;;;;;;;10.77;2.38;;;13.30;99.90;;;;;;5101096;28;20040;-91
2021/11/07 13:02:06;;;;;;;11.43;2.78;;;12.90;99.90;;;;;;5114665;28;20141;-90
2021/11/07 13:04:37;;;;;;;;;;;12.50;99.90;;;;;;5114094;28;20020;-89
2021/11/07 13:07:05;;;;;;;19.52;2.67;;;12.10;99.90;;;;;;5104565;28;19908;-89
2021/11/07 13:09:36;;;;;;;17.42;3.00;;;11.90;99.90;;;;;;5104501;28;20092;-91
2021/11/07 13:12:26;;;;;;;13.15;3.00;;;11.80;99.90;;;;;;5116643;27;20467;-90
2021/11/07 13:23:41;;;;;;;11.15;2.45;;;13.40;99.90;;;;;;5114358;28;20072;-89
2021/11/07 13:29:20;;;;;;;11.60;2.30;;;12.90;99.90;;;;;;5083868;28;20077;-90
2021/11/07 13:32:30;;;;;;;11.77;3.20;;;12.80;99.90;;;;;;5099188;28;20065;-89
2021/11/07 13:34:59;;;;;;;14.77;3.20;;;13.10;99.90;;;;;;5104000;27;20059;-89
2021/11/07 13:37:56;;;;;;;13.77;3.17;;;13.60;99.90;;;;;;5102107;28;20067;-87
2021/11/07 13:40:31;;;;;;;10.02;2.70;;;13.60;99.90;;;;;;5113796;27;20356;-90
2021/11/07 13:43:08;;;;;;;15.75;3.75;;;13.50;99.90;;;;;;5115785;28;20016;-90
2021/11/07 13:45:39;;;;;;;16.73;3.20;;;13.50;99.90;;;;;;5124693;27;20036;-90
2021/11/07 13:48:21;;;;;;;12.48;3.15;;;13.30;99.90;;;;;;5114181;27;20019;-91
2021/11/07 13:50:48;;;;;;;16.77;3.72;;;13.20;99.90;;;;;;5113866;28;20016;-90
2021/11/07 13:53:28;;;;;;;16.60;3.83;;;13.00;99.90;;;;;;5112350;27;20016;-91
2021/11/07 13:56:09;;;;;;;15.55;3.67;;;12.90;99.90;;;;;;5114649;28;20023;-90
2021/11/07 13:59:11;;;;;;;17.75;4.30;;;12.90;99.90;;;;;;5117733;28;20114;-90
2021/11/07 14:02:17;;;;;;;20.98;3.92;;;12.90;99.90;;;;;;5116116;28;20248;-90
2021/11/07 14:05:00;;;;;;;;;;;12.80;99.90;;;;;;5101004;28;20031;-87
2021/11/07 14:07:36;;;;;;;10.20;2.85;;;12.70;99.90;;;;;;5102516;27;19908;-88
2021/11/07 14:10:26;;;;;;;15.23;3.53;;;12.70;99.90;;;;;;5105790;28;20024;-89
2021/11/07 14:12:57;;;;;;;14.88;3.92;;;12.50;99.90;;;;;;5085920;28;20027;-88
2021/11/07 14:15:48;;;;;;;13.48;3.42;;;12.30;99.90;;;;;;5105588;27;20024;-91
2021/11/07 14:18:29;;;;;;;15.80;3.67;;;12.20;99.90;;;;;;5104123;27;20032;-92
2021/11/07 14:21:30;;;;;;;11.82;2.55;;;12.00;99.90;;;;;;5102157;27;20035;-92
2021/11/07 14:27:21;;;;;;;12.20;2.75;;;11.80;99.90;;;;;;5051584;28;20044;-93
2021/11/07 14:29:59;;;;;;;18.17;3.83;;;11.50;99.90;;;;;;5027703;28;20029;-93
2021/11/07 14:32:39;;;;;;;16.80;3.33;;;11.20;99.90;;;;;;5090768;28;20471;-93
2021/11/07 14:35:21;;;;;;;15.77;3.33;;;10.80;99.90;;;;;;5112639;28;20025;-91
2021/11/07 14:38:20;;;;;;;13.73;2.95;;;10.50;99.90;;;;;;5101126;28;20191;-91
2021/11/07 14:40:56;;;;;;;12.73;2.97;;;10.20;99.90;;;;;;5105310;28;20079;-92
2021/11/07 14:43:45;;;;;;;14.82;2.85;;;10.10;99.90;;;;;;5114223;27;20148;-92
2021/11/07 14:46:42;;;;;;;17.38;3.10;;;10.00;99.90;;;;;;5108941;28;20069;-91
2021/11/07 14:49:42;;;;;;;13.05;2.40;;;10.00;99.90;;;;;;5099115;28;20054;-91
2021/11/07 14:55:35;;;;;;;9.93;2.22;;;9.90;99.90;;;;;;5108663;28;20069;-93
2021/11/07 15:01:02;;;;;;;14.52;3.20;;;9.90;99.90;;;;;;5106180;28;20084;-92
2021/11/07 15:03:56;;;;;;;17.40;3.22;;;9.90;99.90;;;;;;5130283;27;20787;-93
2021/11/07 15:06:41;;;;;;;16.60;3.58;;;9.80;99.90;;;;;;5113708;28;20024;-93
2021/11/07 15:09:47;;;;;;;13.65;2.83;;;9.80;99.90;;;;;;5114974;28;20035;-91
2021/11/07 15:12:40;;;;;;;12.35;3.53;;;9.80;99.90;;;;;;5111877;28;20028;-93
2021/11/07 15:18:37;;;;;;;12.35;2.40;;;9.80;99.90;;;;;;5098401;28;20031;-90
2021/11/07 15:21:14;;;;;;;10.27;2.40;;;9.90;99.90;;;;;;5112287;28;20515;-90
2021/11/07 15:23:59;;;;;;;15.77;3.45;;;9.90;99.90;;;;;;5113282;28;20073;-91
2021/11/07 15:26:58;;;;;;;12.48;2.75;;;9.90;99.90;;;;;;5111624;28;20027;-91
2021/11/07 15:29:57;;;;;;;10.98;3.03;;;9.90;99.90;;;;;;5111880;28;20243;-90
2021/11/07 15:32:35;;;;;;;11.65;2.53;;;9.90;99.90;;;;;;5112083;28;20019;-91
2021/11/07 15:35:30;;;;;;;10.57;2.53;;;9.90;99.90;;;;;;5112233;28;20055;-91
2021/11/07 15:38:15;;;;;;;10.40;2.22;;;9.90;99.90;;;;;;5089515;28;20046;-92
2021/11/07 15:40:58;;;;;;;13.32;2.47;;;9.90;99.90;;;;;;5113128;28;20026;-92
2021/11/07 15:43:26;;;;;;;10.77;2.55;;;9.90;99.90;;;;;;5106046;28;20031;-91
2021/11/07 15:46:14;;;;;;;9.77;2.40;;;9.80;99.90;;;;;;5112212;28;20023;-91
2021/11/07 15:48:51;;;;;;;9.38;2.42;;;9.90;99.90;;;;;;5114049;28;20034;-90